Time;durP1;ratioP1;P1;durP2;ratioP2;P2;SDS_P1;SDS_P2;PMS_P1;PMS_P2;Temp;Humidity;BMP_temperature;BMP_pressure;BME280_temperature;BME280_humidity;BME280_pressure;Samples;Min_cycle;Max_cycle;Signal;HPM_P1;HPM_P2
2023/04/04 00:00:11;;;;;;;8.35;2.33;;;4.40;81.80;;;;;;4976663;28;20042;-92
2023/04/04 00:02:37;;;;;;;10.07;2.55;;;4.40;81.50;;;;;;4969812;28;20039;-91
2023/04/04 00:05:06;;;;;;;10.07;2.65;;;4.40;82.20;;;;;;4955207;28;20407;-92
2023/04/04 00:07:32;;;;;;;6.80;2.35;;;4.30;82.80;;;;;;4987414;28;20546;-91
2023/04/04 00:09:57;;;;;;;6.97;2.50;;;4.30;82.60;;;;;;4952480;28;20065;-91
2023/04/04 00:12:23;;;;;;;9.77;2.85;;;4.30;82.90;;;;;;4976879;28;20037;-92
2023/04/04 00:14:50;;;;;;;11.25;3.25;;;4.30;84.00;;;;;;4992220;28;20061;-91
2023/04/04 00:17:15;;;;;;;10.07;3.40;;;4.30;85.00;;;;;;4973296;28;20179;-91
2023/04/04 00:19:41;;;;;;;9.40;2.85;;;4.30;85.10;;;;;;4973427;28;20129;-91
2023/04/04 00:22:07;;;;;;;8.25;3.05;;;4.30;86.10;;;;;;5005731;28;20038;-91
2023/04/04 00:24:33;;;;;;;10.40;2.92;;;4.30;85.80;;;;;;4974451;28;20043;-91
2023/04/04 00:26:59;;;;;;;8.02;2.40;;;4.20;86.90;;;;;;4958747;28;20038;-91
2023/04/04 00:29:24;;;;;;;9.60;2.65;;;4.20;85.70;;;;;;4963506;28;20524;-90
2023/04/04 00:31:50;;;;;;;7.68;2.75;;;4.20;86.70;;;;;;4956266;28;20438;-91
2023/04/04 00:34:16;;;;;;;9.00;2.75;;;4.20;87.50;;;;;;4977909;28;20031;-91
2023/04/04 00:36:42;;;;;;;7.78;3.00;;;4.20;87.80;;;;;;4983685;28;20044;-91
2023/04/04 00:39:07;;;;;;;7.18;2.42;;;4.20;87.30;;;;;;4975769;28;20038;-91
2023/04/04 00:41:34;;;;;;;7.78;2.50;;;4.10;87.30;;;;;;4992688;28;20092;-91
2023/04/04 00:44:00;;;;;;;10.88;3.13;;;4.10;88.90;;;;;;4991958;28;20117;-91
2023/04/04 00:46:26;;;;;;;9.82;2.60;;;4.10;89.60;;;;;;4976969;28;20117;-91
2023/04/04 00:48:53;;;;;;;8.27;3.00;;;4.10;88.50;;;;;;4977626;28;20042;-91
2023/04/04 00:51:19;;;;;;;9.43;2.80;;;4.10;90.10;;;;;;5009880;28;20065;-91
2023/04/04 00:53:46;;;;;;;6.55;2.25;;;4.00;88.70;;;;;;4996338;28;20073;-91
2023/04/04 00:56:12;;;;;;;8.27;2.53;;;4.00;90.00;;;;;;4996301;28;20049;-91
2023/04/04 00:58:38;;;;;;;6.97;2.20;;;4.00;89.20;;;;;;4982824;28;20120;-91
2023/04/04 01:01:04;;;;;;;7.47;2.70;;;4.00;89.20;;;;;;4979573;28;20157;-90
2023/04/04 01:03:31;;;;;;;9.05;2.70;;;4.00;89.30;;;;;;4991873;28;20041;-91
2023/04/04 01:05:57;;;;;;;7.50;2.45;;;4.00;89.80;;;;;;4960724;28;20070;-92
2023/04/04 01:08:26;;;;;;;8.82;2.72;;;3.90;90.00;;;;;;4977635;28;20077;-91
2023/04/04 01:10:52;;;;;;;8.13;3.20;;;3.90;90.30;;;;;;4963871;28;20038;-91
2023/04/04 01:13:18;;;;;;;7.53;2.42;;;3.90;90.00;;;;;;4976196;28;20042;-91
2023/04/04 01:15:44;;;;;;;10.65;3.10;;;3.90;90.40;;;;;;4983833;28;20037;-91
2023/04/04 01:18:13;;;;;;;8.63;3.08;;;3.80;90.20;;;;;;4995919;28;20415;-92
2023/04/04 01:21:01;;;;;;;9.02;2.90;;;3.80;90.70;;;;;;4977656;28;20050;-91
2023/04/04 01:24:03;;;;;;;8.48;2.97;;;3.80;91.50;;;;;;4996754;28;20215;-90
2023/04/04 01:26:29;;;;;;;8.27;2.97;;;3.80;92.30;;;;;;4988850;28;20058;-91
2023/04/04 01:28:56;;;;;;;7.30;2.72;;;3.70;91.90;;;;;;4979756;28;20038;-90
2023/04/04 01:31:34;;;;;;;6.60;2.60;;;3.70;91.40;;;;;;4995283;28;20046;-91
2023/04/04 01:34:19;;;;;;;8.82;2.97;;;3.70;91.40;;;;;;4975437;28;20052;-91
2023/04/04 01:36:56;;;;;;;7.25;2.67;;;3.70;91.70;;;;;;4988878;28;20062;-90
2023/04/04 01:39:27;;;;;;;8.18;2.78;;;3.70;90.90;;;;;;4940954;28;20634;-90
2023/04/04 01:41:55;;;;;;;8.55;2.92;;;3.60;91.40;;;;;;4981016;28;20129;-91
2023/04/04 01:44:21;;;;;;;8.32;2.83;;;3.60;92.00;;;;;;4980026;28;20124;-90
2023/04/04 01:46:52;;;;;;;8.57;2.90;;;3.60;92.30;;;;;;4991963;28;20034;-91
2023/04/04 01:49:18;;;;;;;8.13;2.70;;;3.60;91.40;;;;;;4995602;28;20038;-91
2023/04/04 01:51:45;;;;;;;8.23;2.35;;;3.50;91.70;;;;;;4978593;28;20561;-91
2023/04/04 01:54:11;;;;;;;7.63;2.83;;;3.50;91.70;;;;;;4985699;28;20046;-91
2023/04/04 01:56:36;;;;;;;8.98;3.03;;;3.50;91.50;;;;;;4978311;28;20050;-91
2023/04/04 01:59:02;;;;;;;8.13;2.85;;;3.50;91.40;;;;;;4994648;28;20045;-91
2023/04/04 02:01:28;;;;;;;7.78;2.53;;;3.50;91.30;;;;;;4976170;28;20058;-91
2023/04/04 02:03:53;;;;;;;7.82;2.53;;;3.40;91.60;;;;;;4960087;28;20042;-91
2023/04/04 02:06:19;;;;;;;7.57;2.80;;;3.40;92.00;;;;;;5010289;28;20051;-91
2023/04/04 02:08:44;;;;;;;10.57;3.45;;;3.40;92.30;;;;;;4995342;28;20124;-91
2023/04/04 02:11:11;;;;;;;7.88;2.78;;;3.40;92.20;;;;;;4977832;28;20057;-91
2023/04/04 02:13:40;;;;;;;9.57;2.80;;;3.30;92.10;;;;;;4979040;28;20041;-91
2023/04/04 02:16:05;;;;;;;10.73;2.75;;;3.30;92.20;;;;;;4994627;28;20053;-90
2023/04/04 02:18:32;;;;;;;6.82;2.40;;;3.30;92.30;;;;;;4960278;28;20049;-88
2023/04/04 02:20:58;;;;;;;6.90;2.67;;;3.30;92.20;;;;;;4958772;28;20044;-89
2023/04/04 02:23:23;;;;;;;7.75;2.65;;;3.20;91.50;;;;;;4996862;28;20034;-88
2023/04/04 02:25:50;;;;;;;6.07;2.28;;;3.20;91.60;;;;;;4978658;28;20046;-88
2023/04/04 02:28:16;;;;;;;8.15;2.42;;;3.20;92.10;;;;;;4994718;28;20034;-87
2023/04/04 02:30:41;;;;;;;6.72;2.20;;;3.20;92.00;;;;;;4969132;28;20038;-89
2023/04/04 02:33:07;;;;;;;8.27;2.58;;;3.20;91.70;;;;;;4994961;28;20056;-89
2023/04/04 02:35:33;;;;;;;7.97;2.55;;;3.10;91.70;;;;;;4976252;28;20046;-89
2023/04/04 02:37:59;;;;;;;8.45;2.35;;;3.10;91.40;;;;;;4991583;28;20046;-89
2023/04/04 02:40:24;;;;;;;9.98;2.50;;;3.00;91.30;;;;;;4994431;28;20522;-88
2023/04/04 02:42:50;;;;;;;5.13;1.73;;;3.10;91.50;;;;;;4982010;28;20038;-88
2023/04/04 02:45:16;;;;;;;8.32;2.33;;;3.00;91.40;;;;;;4959038;28;20046;-88
2023/04/04 02:47:48;;;;;;;8.38;2.40;;;3.00;91.40;;;;;;4974381;28;20042;-88
2023/04/04 02:50:14;;;;;;;8.18;2.20;;;3.00;91.80;;;;;;4958317;28;20039;-88
2023/04/04 02:52:39;;;;;;;8.45;2.30;;;2.90;91.60;;;;;;4978878;28;20038;-88
2023/04/04 02:55:06;;;;;;;8.40;2.30;;;2.90;91.80;;;;;;4992086;28;20042;-88
2023/04/04 02:57:32;;;;;;;10.00;2.70;;;2.90;91.50;;;;;;4977751;28;20037;-89
2023/04/04 02:59:57;;;;;;;6.93;2.25;;;2.90;91.50;;;;;;4984383;28;20096;-88
2023/04/04 03:02:24;;;;;;;8.85;2.45;;;2.80;91.50;;;;;;4993300;28;20503;-88
2023/04/04 03:04:50;;;;;;;6.43;2.28;;;2.80;91.70;;;;;;4973496;28;20050;-87
2023/04/04 03:07:15;;;;;;;8.63;2.25;;;2.70;91.40;;;;;;4986674;28;20034;-88
2023/04/04 03:09:43;;;;;;;7.35;2.60;;;2.70;92.00;;;;;;4957051;28;20049;-87
2023/04/04 03:12:10;;;;;;;7.55;2.22;;;2.70;92.00;;;;;;4961285;28;20042;-88
2023/04/04 03:14:36;;;;;;;7.55;3.72;;;2.70;92.00;;;;;;5006770;28;20045;-88
2023/04/04 03:17:02;;;;;;;7.28;2.83;;;2.60;92.10;;;;;;4974443;28;20034;-88
2023/04/04 03:19:27;;;;;;;9.20;2.63;;;2.60;92.20;;;;;;4991217;28;20038;-88
2023/04/04 03:21:53;;;;;;;7.45;2.33;;;2.50;92.10;;;;;;4961440;28;20534;-88
2023/04/04 03:24:18;;;;;;;9.55;2.60;;;2.50;92.40;;;;;;4957284;28;20136;-88
2023/04/04 03:26:44;;;;;;;8.13;2.88;;;2.50;92.20;;;;;;4957671;28;20077;-88
2023/04/04 03:29:10;;;;;;;7.22;2.42;;;2.50;92.30;;;;;;4996294;28;20030;-88
2023/04/04 03:31:35;;;;;;;5.20;1.90;;;2.50;92.70;;;;;;4976497;28;20080;-88
2023/04/04 03:34:03;;;;;;;6.68;2.50;;;2.50;92.50;;;;;;4981512;28;20042;-88
2023/04/04 03:36:29;;;;;;;9.73;2.90;;;2.40;92.20;;;;;;4973862;28;20045;-87
2023/04/04 03:38:55;;;;;;;7.50;2.35;;;2.40;92.10;;;;;;4967925;28;20041;-89
2023/04/04 03:41:21;;;;;;;6.38;2.40;;;2.40;92.00;;;;;;4992752;28;20060;-88
2023/04/04 03:43:47;;;;;;;6.63;2.20;;;2.30;91.70;;;;;;4992375;28;20133;-88
2023/04/04 03:46:13;;;;;;;6.88;2.00;;;2.30;92.10;;;;;;4988036;28;20045;-88
2023/04/04 03:48:39;;;;;;;8.68;1.88;;;2.30;92.30;;;;;;4956776;28;20185;-88
2023/04/04 03:51:04;;;;;;;7.45;2.55;;;2.20;92.40;;;;;;4973067;28;20038;-88
2023/04/04 03:53:30;;;;;;;6.70;2.33;;;2.20;92.10;;;;;;4977654;28;20081;-88
2023/04/04 03:55:56;;;;;;;6.78;2.00;;;2.20;92.10;;;;;;4973579;28;20084;-88
2023/04/04 03:58:22;;;;;;;7.18;2.75;;;2.10;92.10;;;;;;4975356;28;20065;-88
2023/04/04 04:00:48;;;;;;;4.78;1.80;;;2.10;92.10;;;;;;4989795;28;20129;-88
2023/04/04 04:03:14;;;;;;;7.50;2.33;;;2.10;92.10;;;;;;4976436;28;20467;-87
2023/04/04 04:05:40;;;;;;;6.22;2.10;;;2.00;92.00;;;;;;4956698;28;20049;-88
2023/04/04 04:08:05;;;;;;;7.93;2.67;;;2.00;92.00;;;;;;4973695;28;20038;-88
2023/04/04 04:10:32;;;;;;;8.05;2.35;;;2.00;91.90;;;;;;5004494;28;20043;-88
2023/04/04 04:12:58;;;;;;;6.22;2.15;;;2.00;92.40;;;;;;4989571;28;20038;-88
2023/04/04 04:15:24;;;;;;;6.50;2.42;;;1.90;92.40;;;;;;4975959;28;20065;-87
2023/04/04 04:17:50;;;;;;;8.48;2.15;;;2.00;92.60;;;;;;4976856;28;20125;-88
2023/04/04 04:20:15;;;;;;;6.47;2.13;;;1.90;92.40;;;;;;4962171;28;20090;-88
2023/04/04 04:22:48;;;;;;;7.40;2.38;;;1.90;92.60;;;;;;4992247;28;20128;-87
2023/04/04 04:25:15;;;;;;;8.00;2.05;;;1.90;92.90;;;;;;4979629;28;20077;-88
2023/04/04 04:27:41;;;;;;;6.95;1.92;;;1.90;92.70;;;;;;4995896;28;20030;-88
2023/04/04 04:30:08;;;;;;;5.57;2.05;;;1.90;92.50;;;;;;4968306;28;20472;-88
2023/04/04 04:32:33;;;;;;;7.78;2.58;;;1.90;92.20;;;;;;5008154;28;20578;-88
2023/04/04 04:34:59;;;;;;;5.80;2.13;;;1.90;92.30;;;;;;5007516;28;20053;-87
2023/04/04 04:37:33;;;;;;;7.93;2.10;;;1.80;92.50;;;;;;4990640;28;20045;-87
2023/04/04 04:40:00;;;;;;;5.90;2.47;;;1.80;92.50;;;;;;4994821;28;20468;-88
2023/04/04 04:42:26;;;;;;;5.97;2.00;;;1.70;92.30;;;;;;4987952;28;20045;-87
2023/04/04 04:44:52;;;;;;;8.02;1.88;;;1.60;92.20;;;;;;4977957;28;20403;-87
2023/04/04 04:47:17;;;;;;;7.07;1.88;;;1.50;92.50;;;;;;4983187;28;20034;-87
2023/04/04 04:49:46;;;;;;;5.80;1.92;;;1.50;93.40;;;;;;4958300;28;20523;-88
2023/04/04 04:52:12;;;;;;;6.30;1.95;;;1.50;94.20;;;;;;4961148;28;20064;-87
2023/04/04 04:54:38;;;;;;;5.75;2.10;;;1.50;94.20;;;;;;4993741;28;20487;-88
2023/04/04 04:57:03;;;;;;;6.88;1.80;;;1.40;94.00;;;;;;4977895;28;20034;-88
2023/04/04 04:59:29;;;;;;;7.03;2.20;;;1.40;94.50;;;;;;4975305;28;20049;-87
2023/04/04 05:01:54;;;;;;;6.30;2.10;;;1.30;95.00;;;;;;4974860;28;20504;-88
2023/04/04 05:04:20;;;;;;;12.25;3.05;;;1.30;94.60;;;;;;4981659;28;20040;-88
2023/04/04 05:06:46;;;;;;;7.82;2.25;;;1.30;95.00;;;;;;4975911;28;20041;-87
2023/04/04 05:09:11;;;;;;;7.18;2.20;;;1.30;94.90;;;;;;4993825;28;20185;-88
2023/04/04 05:11:37;;;;;;;6.85;2.30;;;1.30;94.90;;;;;;4979983;28;20042;-88
2023/04/04 05:14:05;;;;;;;8.18;2.45;;;1.20;95.00;;;;;;4991298;28;20042;-90
2023/04/04 05:16:32;;;;;;;9.25;2.60;;;1.20;94.90;;;;;;4976224;28;20792;-89
2023/04/04 05:18:57;;;;;;;6.32;2.25;;;1.20;95.20;;;;;;4990353;28;20042;-90
2023/04/04 05:21:23;;;;;;;7.15;2.97;;;1.20;95.10;;;;;;4991100;28;20042;-88
2023/04/04 05:23:49;;;;;;;6.88;2.00;;;1.20;95.10;;;;;;4987536;28;20551;-87
2023/04/04 05:26:14;;;;;;;7.68;2.17;;;1.20;95.00;;;;;;4957817;28;20038;-87
2023/04/04 05:28:40;;;;;;;6.90;2.50;;;1.20;95.40;;;;;;4920131;28;1112306;-88
2023/04/04 05:31:06;;;;;;;9.30;2.38;;;1.20;95.50;;;;;;4990287;28;20180;-88
2023/04/04 05:33:31;;;;;;;7.43;2.20;;;1.20;95.40;;;;;;4994908;28;20104;-88
2023/04/04 05:35:59;;;;;;;6.82;1.80;;;1.20;96.00;;;;;;4979988;28;20042;-88
2023/04/04 05:38:25;;;;;;;6.28;2.15;;;1.20;96.10;;;;;;4959220;28;20049;-88
2023/04/04 05:40:53;;;;;;;6.40;2.08;;;1.20;95.90;;;;;;4976624;28;20122;-87
2023/04/04 05:43:19;;;;;;;5.15;1.90;;;1.30;96.60;;;;;;4991594;28;20537;-88
2023/04/04 05:45:44;;;;;;;6.93;2.25;;;1.30;96.20;;;;;;4978283;28;20560;-88
2023/04/04 05:48:10;;;;;;;6.60;2.30;;;1.30;96.30;;;;;;4978775;28;20049;-88
2023/04/04 05:50:36;;;;;;;8.93;2.92;;;1.30;96.40;;;;;;4958319;28;20074;-88
2023/04/04 05:53:01;;;;;;;6.88;2.42;;;1.30;96.20;;;;;;4989197;28;20480;-88
2023/04/04 05:55:28;;;;;;;8.73;2.95;;;1.30;96.40;;;;;;4991205;28;20090;-88
2023/04/04 05:57:53;;;;;;;9.05;2.85;;;1.40;96.30;;;;;;4995064;28;20053;-88
2023/04/04 06:00:19;;;;;;;7.43;2.20;;;1.40;96.40;;;;;;4961537;28;20042;-88
2023/04/04 06:02:45;;;;;;;10.02;2.47;;;1.40;97.70;;;;;;4975713;28;20081;-89
2023/04/04 06:05:10;;;;;;;7.63;2.60;;;1.50;97.30;;;;;;5006995;28;20459;-87
2023/04/04 06:07:36;;;;;;;7.50;2.65;;;1.60;98.00;;;;;;4976058;28;20034;-88
2023/04/04 06:10:03;;;;;;;7.28;2.70;;;1.70;98.30;;;;;;4975689;28;20643;-89
2023/04/04 06:12:29;;;;;;;6.50;2.00;;;1.70;96.80;;;;;;4976516;28;20038;-89
2023/04/04 06:14:55;;;;;;;9.35;2.50;;;1.80;96.90;;;;;;4975992;28;20117;-89
2023/04/04 06:17:20;;;;;;;6.47;2.17;;;1.80;97.50;;;;;;4999888;28;20118;-89
2023/04/04 06:19:46;;;;;;;9.73;2.97;;;1.90;96.90;;;;;;4959513;28;20050;-88
2023/04/04 06:22:11;;;;;;;5.60;1.98;;;2.00;96.30;;;;;;4983644;28;20041;-90
2023/04/04 06:24:37;;;;;;;8.90;2.67;;;2.10;95.70;;;;;;5008777;28;20099;-88
2023/04/04 06:27:03;;;;;;;4.68;1.83;;;2.20;95.20;;;;;;4980349;28;20778;-88
2023/04/04 06:29:30;;;;;;;6.93;2.17;;;2.20;94.80;;;;;;4979010;28;20042;-88
2023/04/04 06:31:56;;;;;;;5.90;2.03;;;2.30;94.90;;;;;;4980972;28;20038;-88
2023/04/04 06:34:22;;;;;;;9.88;2.70;;;2.40;94.70;;;;;;4962743;28;20037;-88
2023/04/04 06:36:48;;;;;;;12.07;2.42;;;2.40;94.00;;;;;;4981298;28;20034;-88
2023/04/04 06:39:13;;;;;;;8.23;2.28;;;2.50;94.10;;;;;;4979425;28;20030;-89
2023/04/04 06:41:39;;;;;;;6.60;2.20;;;2.60;94.20;;;;;;4992075;28;20073;-88
2023/04/04 06:44:05;;;;;;;7.43;2.40;;;2.70;94.20;;;;;;4978079;28;20041;-89
2023/04/04 06:46:31;;;;;;;9.65;2.88;;;2.80;94.00;;;;;;4986455;28;20474;-88
2023/04/04 06:48:57;;;;;;;10.05;2.70;;;2.90;93.70;;;;;;4975391;28;20038;-88
2023/04/04 06:51:23;;;;;;;8.70;2.33;;;3.00;94.60;;;;;;4959236;28;20045;-89
2023/04/04 06:53:49;;;;;;;6.47;2.08;;;3.00;93.90;;;;;;4982551;28;20688;-89
2023/04/04 06:56:15;;;;;;;7.82;2.38;;;3.10;93.30;;;;;;4975234;28;20042;-89
2023/04/04 06:58:41;;;;;;;9.63;3.00;;;3.20;92.80;;;;;;4991319;28;20455;-89
2023/04/04 07:01:07;;;;;;;7.88;2.55;;;3.30;92.30;;;;;;4990771;28;20492;-90
2023/04/04 07:03:33;;;;;;;7.68;2.30;;;3.30;91.70;;;;;;4959419;28;20046;-89
2023/04/04 07:06:02;;;;;;;6.40;2.25;;;3.40;91.50;;;;;;4979512;28;20041;-89
2023/04/04 07:08:28;;;;;;;9.55;2.50;;;3.50;91.10;;;;;;4975274;28;20053;-89
2023/04/04 07:10:54;;;;;;;8.88;2.72;;;3.50;90.70;;;;;;5000152;28;20037;-90
2023/04/04 07:13:20;;;;;;;7.60;2.33;;;3.60;90.50;;;;;;4979144;28;20471;-89
2023/04/04 07:15:49;;;;;;;6.25;1.98;;;3.70;90.40;;;;;;4974389;28;20038;-90
2023/04/04 07:18:15;;;;;;;7.32;2.00;;;3.80;90.10;;;;;;4976199;28;20057;-90
2023/04/04 07:20:42;;;;;;;8.52;2.17;;;3.90;89.70;;;;;;4990549;28;20041;-90
2023/04/04 07:23:09;;;;;;;7.18;2.20;;;4.00;89.60;;;;;;4977800;28;20042;-90
2023/04/04 07:25:36;;;;;;;9.30;2.33;;;4.10;89.60;;;;;;4993106;28;20046;-88
2023/04/04 07:28:01;;;;;;;6.45;1.92;;;4.20;90.00;;;;;;4959059;28;20042;-90
2023/04/04 07:30:28;;;;;;;6.82;1.70;;;4.30;89.60;;;;;;4957471;28;20050;-90
2023/04/04 07:32:58;;;;;;;8.85;1.98;;;4.30;87.50;;;;;;4959602;28;20065;-91
2023/04/04 07:35:24;;;;;;;5.30;1.52;;;4.40;86.20;;;;;;4977723;28;20403;-90
2023/04/04 07:37:51;;;;;;;6.93;1.75;;;4.50;85.80;;;;;;4974489;28;20503;-91
2023/04/04 07:40:17;;;;;;;7.68;1.75;;;4.60;85.50;;;;;;4992318;28;20045;-90
2023/04/04 07:42:49;;;;;;;7.13;1.90;;;4.70;84.60;;;;;;4993043;28;20490;-90
2023/04/04 07:45:16;;;;;;;7.72;1.60;;;4.80;84.00;;;;;;4973701;28;20052;-91
2023/04/04 07:47:43;;;;;;;9.02;1.52;;;4.90;83.10;;;;;;4993247;28;20117;-91
2023/04/04 07:50:09;;;;;;;7.05;2.08;;;4.90;83.10;;;;;;4966007;28;20034;-92
2023/04/04 07:52:35;;;;;;;5.22;1.70;;;5.00;82.90;;;;;;4974095;28;20038;-90
2023/04/04 07:55:02;;;;;;;8.13;1.80;;;5.10;82.10;;;;;;4957633;28;20400;-89
2023/04/04 07:57:28;;;;;;;7.20;1.80;;;5.20;81.70;;;;;;4957429;28;20049;-89
2023/04/04 07:59:53;;;;;;;4.20;1.45;;;5.30;81.30;;;;;;4976829;28;20041;-89
2023/04/04 08:02:19;;;;;;;6.00;1.48;;;5.40;81.00;;;;;;4988159;28;20522;-90
2023/04/04 08:04:45;;;;;;;7.97;2.10;;;5.40;80.10;;;;;;4991230;28;20546;-89
2023/04/04 08:07:10;;;;;;;7.65;1.92;;;5.50;80.50;;;;;;4982207;28;20049;-88
2023/04/04 08:09:36;;;;;;;8.95;2.28;;;5.60;80.10;;;;;;4973384;28;20042;-91
2023/04/04 08:12:02;;;;;;;5.60;1.85;;;5.60;79.70;;;;;;4963553;28;20041;-89
2023/04/04 08:14:28;;;;;;;7.85;2.10;;;5.70;78.60;;;;;;4975479;28;20050;-90
2023/04/04 08:16:53;;;;;;;8.00;2.15;;;5.80;78.90;;;;;;4992271;28;20042;-90
2023/04/04 08:19:20;;;;;;;6.05;1.83;;;5.90;78.30;;;;;;4964516;28;20442;-91
2023/04/04 08:21:45;;;;;;;9.43;1.67;;;5.90;78.20;;;;;;4989163;28;20096;-91
2023/04/04 08:24:11;;;;;;;8.73;2.17;;;6.00;77.90;;;;;;4957710;28;20053;-90
2023/04/04 08:26:37;;;;;;;5.97;1.92;;;6.10;77.90;;;;;;5005450;28;20561;-90
2023/04/04 08:29:03;;;;;;;4.97;1.70;;;6.20;77.90;;;;;;4989826;28;20035;-90
2023/04/04 08:31:29;;;;;;;4.97;1.60;;;6.20;77.30;;;;;;4958234;28;20086;-90
2023/04/04 08:33:55;;;;;;;7.53;2.20;;;6.40;77.50;;;;;;4957658;28;20081;-91
2023/04/04 08:36:21;;;;;;;5.10;1.73;;;6.50;77.30;;;;;;4955512;28;20691;-93
2023/04/04 08:38:47;;;;;;;6.85;2.05;;;6.50;76.90;;;;;;4956513;28;20042;-90
2023/04/04 08:41:14;;;;;;;7.47;2.33;;;6.60;76.90;;;;;;4956224;28;20171;-90
2023/04/04 08:43:44;;;;;;;9.85;1.70;;;6.80;77.50;;;;;;4987169;28;20043;-90
2023/04/04 08:46:11;;;;;;;8.63;2.00;;;6.90;76.60;;;;;;4988340;28;20046;-90
2023/04/04 08:48:40;;;;;;;8.70;2.03;;;7.00;75.90;;;;;;4960712;28;20046;-91
2023/04/04 08:51:09;;;;;;;7.03;1.70;;;7.10;76.20;;;;;;4976120;28;20034;-91
2023/04/04 08:53:37;;;;;;;7.15;2.03;;;7.20;76.00;;;;;;4972549;28;20033;-90
2023/04/04 08:56:03;;;;;;;3.67;1.55;;;7.40;76.10;;;;;;4966140;28;20065;-91
2023/04/04 08:58:29;;;;;;;9.60;2.65;;;7.50;75.30;;;;;;4987422;28;20054;-90
2023/04/04 09:00:55;;;;;;;6.97;1.77;;;7.60;75.10;;;;;;4982222;28;20080;-92
2023/04/04 09:03:25;;;;;;;8.48;2.33;;;7.70;75.20;;;;;;4985114;28;20049;-92
2023/04/04 09:05:54;;;;;;;7.45;2.17;;;7.80;75.00;;;;;;4975152;28;20507;-91
2023/04/04 09:08:23;;;;;;;7.25;2.05;;;7.90;74.70;;;;;;4965514;28;20064;-92
2023/04/04 09:10:50;;;;;;;6.05;2.00;;;8.00;73.90;;;;;;4992315;28;20042;-92
2023/04/04 09:13:16;;;;;;;11.07;2.03;;;8.10;72.90;;;;;;4980246;28;20037;-92
2023/04/04 09:15:49;;;;;;;6.53;1.80;;;8.20;73.40;;;;;;4973848;28;20522;-92
2023/04/04 09:18:15;;;;;;;5.22;1.70;;;8.20;72.40;;;;;;4996406;28;20042;-93
2023/04/04 09:20:43;;;;;;;8.70;2.70;;;8.30;72.40;;;;;;4994629;28;20072;-91
2023/04/04 09:23:11;;;;;;;6.57;1.63;;;8.40;72.30;;;;;;4976938;28;20053;-91
2023/04/04 09:25:49;;;;;;;5.75;1.65;;;8.50;72.40;;;;;;5007717;28;20091;-93
2023/04/04 09:28:16;;;;;;;6.80;1.58;;;8.70;72.50;;;;;;4988423;28;20157;-92
2023/04/04 09:30:43;;;;;;;7.55;2.00;;;8.80;72.20;;;;;;5009499;28;20116;-91
2023/04/04 09:33:11;;;;;;;6.38;1.50;;;8.90;71.60;;;;;;4986699;28;20034;-93
2023/04/04 09:35:43;;;;;;;7.93;1.52;;;9.10;71.10;;;;;;4973658;28;20109;-92
2023/04/04 09:38:09;;;;;;;4.80;1.48;;;9.20;71.10;;;;;;4950521;28;20050;-90
2023/04/04 09:40:35;;;;;;;6.95;1.33;;;9.30;70.50;;;;;;4959685;28;20038;-89
2023/04/04 09:43:05;;;;;;;7.82;1.80;;;9.40;70.10;;;;;;4994439;28;20615;-89
2023/04/04 09:45:34;;;;;;;5.82;1.77;;;9.50;70.10;;;;;;4985926;28;20038;-90
2023/04/04 09:48:01;;;;;;;9.05;1.88;;;9.60;69.60;;;;;;4962326;28;20125;-89
2023/04/04 09:50:32;;;;;;;9.00;1.77;;;9.80;69.70;;;;;;4988356;28;20182;-90
2023/04/04 09:52:59;;;;;;;4.72;1.48;;;9.90;69.30;;;;;;4970311;28;20523;-89
2023/04/04 09:55:33;;;;;;;4.18;1.40;;;9.90;68.00;;;;;;4960937;28;20038;-90
2023/04/04 09:58:01;;;;;;;8.73;1.90;;;9.90;67.70;;;;;;4964038;28;20042;-89
2023/04/04 10:00:29;;;;;;;5.07;1.60;;;10.00;67.90;;;;;;4978101;28;20392;-90
2023/04/04 10:02:57;;;;;;;5.32;1.33;;;10.10;67.70;;;;;;4996390;28;20510;-90
2023/04/04 10:05:23;;;;;;;5.60;1.83;;;10.10;67.20;;;;;;4992673;28;20050;-90
2023/04/04 10:07:49;;;;;;;6.00;2.08;;;10.30;67.70;;;;;;5009701;28;20042;-90
2023/04/04 10:10:14;;;;;;;7.70;2.05;;;10.40;66.90;;;;;;4978983;28;20411;-90
2023/04/04 10:12:44;;;;;;;6.97;1.98;;;10.50;66.50;;;;;;4978564;28;20120;-90
2023/04/04 10:15:10;;;;;;;7.90;1.63;;;10.60;66.10;;;;;;4948785;28;20416;-89
2023/04/04 10:17:40;;;;;;;6.20;1.80;;;10.70;66.10;;;;;;5002710;28;20046;-90
2023/04/04 10:20:08;;;;;;;6.82;1.90;;;10.80;66.30;;;;;;4978239;28;20039;-90
2023/04/04 10:22:35;;;;;;;6.95;1.67;;;10.90;66.10;;;;;;4988815;28;20133;-91
2023/04/04 10:25:02;;;;;;;7.43;1.90;;;11.00;65.30;;;;;;4958254;28;20130;-90
2023/04/04 10:27:28;;;;;;;7.35;2.10;;;11.10;65.00;;;;;;4963563;28;20065;-89
2023/04/04 10:29:53;;;;;;;6.32;1.73;;;11.20;64.50;;;;;;4971538;28;20381;-90
2023/04/04 10:32:48;;;;;;;7.47;1.95;;;11.30;64.90;;;;;;4999142;28;20026;-91
2023/04/04 10:35:16;;;;;;;6.53;1.92;;;11.40;63.70;;;;;;5006242;28;20178;-90
2023/04/04 10:37:56;;;;;;;8.27;1.80;;;11.50;63.90;;;;;;4990260;28;20049;-90
2023/04/04 10:40:26;;;;;;;8.52;2.38;;;11.50;63.30;;;;;;4993061;28;20042;-90
2023/04/04 10:42:54;;;;;;;7.25;2.10;;;11.70;63.70;;;;;;4995287;28;20038;-91
2023/04/04 10:45:20;;;;;;;8.85;2.05;;;11.80;63.50;;;;;;4992577;28;20078;-91
2023/04/04 10:47:47;;;;;;;6.88;2.25;;;12.00;63.10;;;;;;4960123;28;20399;-91
2023/04/04 10:50:14;;;;;;;5.53;1.75;;;12.20;63.10;;;;;;4960527;28;20047;-91
2023/04/04 10:52:42;;;;;;;7.07;2.00;;;12.30;62.70;;;;;;4987705;28;20524;-91
2023/04/04 10:55:11;;;;;;;9.63;2.00;;;12.50;62.70;;;;;;4978946;28;20042;-91
2023/04/04 10:57:43;;;;;;;6.22;1.80;;;12.70;62.30;;;;;;4961316;28;20456;-92
2023/04/04 11:00:22;;;;;;;5.63;2.00;;;12.80;61.50;;;;;;5004498;28;20042;-92
2023/04/04 11:03:01;;;;;;;7.20;2.30;;;12.90;61.00;;;;;;5023058;28;20292;-91
2023/04/04 11:05:42;;;;;;;6.80;2.10;;;13.00;60.90;;;;;;4975577;28;20513;-92
2023/04/04 11:08:12;;;;;;;8.30;2.92;;;13.00;60.30;;;;;;4971486;28;20066;-91
2023/04/04 11:10:49;;;;;;;7.93;2.80;;;13.00;59.90;;;;;;4961625;28;20026;-92
2023/04/04 11:13:31;;;;;;;9.90;2.55;;;13.10;55.80;;;;;;4989027;28;20108;-92
2023/04/04 11:16:14;;;;;;;6.35;1.70;;;13.20;56.30;;;;;;4967918;28;20093;-91
2023/04/04 11:18:42;;;;;;;7.18;2.03;;;13.30;57.20;;;;;;4967522;28;20663;-92
2023/04/04 11:21:12;;;;;;;6.78;2.00;;;13.40;57.70;;;;;;4965676;28;20077;-92
2023/04/04 11:24:03;;;;;;;9.48;1.95;;;13.50;56.40;;;;;;4982191;28;20046;-91
2023/04/04 11:26:29;;;;;;;7.68;1.92;;;13.70;57.00;;;;;;5021084;28;20058;-92
2023/04/04 11:29:00;;;;;;;9.73;2.50;;;13.80;57.60;;;;;;4984062;28;20034;-92
2023/04/04 11:31:28;;;;;;;6.68;2.10;;;14.00;54.90;;;;;;4967329;28;20038;-90
2023/04/04 11:34:08;;;;;;;7.85;2.47;;;14.10;55.20;;;;;;4992784;28;20103;-92
2023/04/04 11:36:36;;;;;;;6.75;2.47;;;14.10;52.20;;;;;;4976190;28;20038;-91
2023/04/04 11:39:13;;;;;;;9.23;2.47;;;14.10;53.70;;;;;;4961228;28;20034;-92
2023/04/04 11:42:07;;;;;;;6.28;2.40;;;14.20;53.90;;;;;;4956138;28;20039;-92
2023/04/04 11:44:39;;;;;;;5.95;2.00;;;14.40;52.90;;;;;;4961351;28;20414;-92
2023/04/04 11:47:05;;;;;;;7.30;1.60;;;14.60;52.20;;;;;;4978120;28;20054;-91
2023/04/04 11:49:35;;;;;;;6.15;2.00;;;14.80;52.80;;;;;;4989896;28;20087;-92
2023/04/04 11:52:10;;;;;;;6.05;2.10;;;15.00;52.00;;;;;;4978306;28;20165;-93
2023/04/04 11:54:37;;;;;;;7.22;2.08;;;15.10;49.00;;;;;;4962817;28;20085;-91
2023/04/04 11:57:07;;;;;;;6.50;1.88;;;15.10;47.80;;;;;;4987767;28;20034;-92
2023/04/04 11:59:38;;;;;;;5.53;1.90;;;15.20;49.60;;;;;;4972082;28;20043;-91
2023/04/04 12:02:04;;;;;;;6.75;2.17;;;15.40;49.30;;;;;;5006580;28;20571;-92
2023/04/04 12:04:30;;;;;;;6.85;1.90;;;15.50;48.30;;;;;;4975798;28;20125;-92
2023/04/04 12:06:55;;;;;;;8.05;2.00;;;15.50;49.30;;;;;;4971508;28;20442;-92
2023/04/04 12:09:24;;;;;;;5.82;2.08;;;15.60;48.70;;;;;;4993948;28;20072;-92
2023/04/04 12:11:50;;;;;;;7.47;2.20;;;15.80;47.00;;;;;;4974121;28;20048;-93
2023/04/04 12:14:20;;;;;;;5.63;2.10;;;15.70;46.30;;;;;;4958413;28;20046;-92
2023/04/04 12:16:48;;;;;;;5.97;2.05;;;15.80;46.30;;;;;;4994410;28;20039;-93
2023/04/04 12:19:13;;;;;;;7.43;2.20;;;15.80;43.60;;;;;;4993779;28;20108;-92
2023/04/04 12:21:39;;;;;;;7.03;1.90;;;15.60;43.10;;;;;;4977309;28;20037;-92
2023/04/04 12:24:09;;;;;;;6.38;1.70;;;15.70;43.90;;;;;;4973116;28;20041;-89
2023/04/04 12:26:38;;;;;;;8.88;2.10;;;15.70;45.20;;;;;;4993320;28;20121;-92
2023/04/04 12:29:04;;;;;;;5.13;1.98;;;15.70;45.40;;;;;;4958154;28;20082;-92
2023/04/04 12:31:31;;;;;;;4.18;1.38;;;16.00;46.70;;;;;;4970959;28;20069;-93
2023/04/04 12:33:58;;;;;;;5.30;1.98;;;16.10;46.00;;;;;;4997383;28;20117;-91
2023/04/04 12:36:25;;;;;;;5.78;2.10;;;16.20;45.90;;;;;;4974497;28;20065;-91
2023/04/04 12:39:08;;;;;;;7.05;2.00;;;16.40;44.30;;;;;;4959059;28;20125;-91
2023/04/04 12:41:35;;;;;;;4.65;1.73;;;16.50;39.80;;;;;;4979553;28;20046;-92
2023/04/04 12:44:08;;;;;;;6.80;2.15;;;16.50;40.70;;;;;;4993845;28;20042;-92
2023/04/04 12:46:38;;;;;;;6.55;1.95;;;16.90;44.10;;;;;;5001904;28;20047;-92
2023/04/04 12:49:05;;;;;;;8.05;2.20;;;17.20;44.50;;;;;;4942310;28;20062;-91
2023/04/04 12:51:34;;;;;;;6.25;2.00;;;17.60;44.10;;;;;;4962419;28;20050;-92
2023/04/04 12:54:00;;;;;;;5.78;2.30;;;17.80;42.40;;;;;;4961660;28;20487;-92
2023/04/04 12:56:27;;;;;;;6.88;1.80;;;18.00;42.30;;;;;;4961707;28;20046;-92